TimeEDT,TemperatureF,Dew PointF,Humidity,Sea Level PressureIn,VisibilityMPH,Wind Direction,Wind SpeedMPH,Gust SpeedMPH,PrecipitationIn,Events,Conditions,WindDirDegrees,DateUTC
12:15 AM,62.6,59.0,88,29.94,10.0,SE,6.9,-,N/A,,Unknown,140,2013-05-17 04:15:00
12:35 AM,64.4,57.2,77,29.95,10.0,WNW,9.2,-,N/A,,Unknown,300,2013-05-17 04:35:00
12:55 AM,66.2,57.2,73,29.95,10.0,WSW,3.5,-,N/A,,Unknown,250,2013-05-17 04:55:00
1:15 AM,62.6,57.2,82,29.95,10.0,SSE,3.5,-,N/A,,Unknown,150,2013-05-17 05:15:00
1:35 AM,62.6,57.2,82,29.94,10.0,Calm,Calm,-,N/A,,Unknown,0,2013-05-17 05:35:00
1:55 AM,60.8,57.2,88,29.94,10.0,North,3.5,-,N/A,,Unknown,360,2013-05-17 05:55:00
2:15 AM,60.8,57.2,88,29.94,10.0,Calm,Calm,-,N/A,,Unknown,0,2013-05-17 06:15:00
2:35 AM,60.8,57.2,88,29.94,10.0,North,3.5,-,N/A,,Unknown,350,2013-05-17 06:35:00
2:55 AM,60.8,57.2,88,29.95,10.0,NNW,3.5,-,N/A,,Unknown,330,2013-05-17 06:55:00
3:15 AM,57.2,55.4,94,29.95,10.0,North,3.5,-,N/A,,Unknown,10,2013-05-17 07:15:00
3:35 AM,55.4,55.4,100,29.96,10.0,SSE,3.5,-,N/A,,Unknown,150,2013-05-17 07:35:00
3:55 AM,57.2,55.4,94,29.97,10.0,Calm,Calm,-,N/A,,Unknown,0,2013-05-17 07:55:00
4:15 AM,57.2,55.4,94,29.97,10.0,Calm,Calm,-,N/A,,Unknown,0,2013-05-17 08:15:00
4:35 AM,55.4,53.6,94,29.99,10.0,Calm,Calm,-,N/A,,Unknown,0,2013-05-17 08:35:00
4:55 AM,55.4,55.4,100,30.00,10.0,Calm,Calm,-,N/A,,Unknown,0,2013-05-17 08:55:00
5:15 AM,55.4,53.6,94,30.01,10.0,SSE,4.6,-,N/A,,Unknown,150,2013-05-17 09:15:00
5:35 AM,53.6,53.6,100,30.03,10.0,Calm,Calm,-,N/A,,Unknown,0,2013-05-17 09:35:00
5:55 AM,53.6,53.6,100,30.03,9.0,Calm,Calm,-,N/A,,Unknown,0,2013-05-17 09:55:00
6:15 AM,55.4,55.4,100,30.04,10.0,Calm,Calm,-,N/A,,Unknown,0,2013-05-17 10:15:00
6:35 AM,55.4,55.4,100,30.05,10.0,NW,3.5,-,N/A,,Unknown,320,2013-05-17 10:35:00
6:55 AM,57.2,57.2,100,30.06,10.0,SE,3.5,-,N/A,,Unknown,130,2013-05-17 10:55:00
7:15 AM,60.8,59.0,94,30.07,10.0,Calm,Calm,-,N/A,,Unknown,0,2013-05-17 11:15:00
7:35 AM,62.6,60.8,94,30.08,10.0,Calm,Calm,-,N/A,,Unknown,0,2013-05-17 11:35:00
8:15 AM,69.8,59.0,68,30.09,10.0,NNE,3.5,-,N/A,,Unknown,30,2013-05-17 12:15:00
8:35 AM,69.8,60.8,73,30.10,10.0,NNE,3.5,-,N/A,,Unknown,30,2013-05-17 12:35:00
8:55 AM,71.6,60.8,69,30.10,10.0,North,4.6,-,N/A,,Unknown,10,2013-05-17 12:55:00
9:15 AM,73.4,60.8,65,30.10,10.0,North,9.2,-,N/A,,Unknown,360,2013-05-17 13:15:00
9:35 AM,73.4,59.0,61,30.10,10.0,North,8.1,-,N/A,,Unknown,360,2013-05-17 13:35:00
9:55 AM,75.2,57.2,53,30.10,10.0,North,6.9,-,N/A,,Unknown,360,2013-05-17 13:55:00
10:15 AM,75.2,53.6,47,30.11,10.0,NNE,6.9,-,N/A,,Unknown,30,2013-05-17 14:15:00
10:35 AM,75.2,53.6,47,30.11,10.0,NNE,3.5,-,N/A,,Unknown,30,2013-05-17 14:35:00
10:55 AM,77.0,53.6,44,30.11,10.0,North,4.6,-,N/A,,Unknown,350,2013-05-17 14:55:00
11:15 AM,78.8,51.8,39,30.11,10.0,WNW,5.8,-,N/A,,Unknown,290,2013-05-17 15:15:00
11:35 AM,78.8,51.8,39,30.11,10.0,Calm,Calm,-,N/A,,Unknown,0,2013-05-17 15:35:00
11:45 AM,78.8,53.6,42,30.11,10.0,Variable,4.6,-,N/A,,Clear,0,2013-05-17 15:45:00
11:55 AM,78.8,53.6,42,30.10,10.0,Calm,Calm,-,N/A,,Unknown,0,2013-05-17 15:55:00
12:15 PM,78.8,53.6,42,30.10,10.0,SSW,5.8,-,N/A,,Unknown,210,2013-05-17 16:15:00
12:35 PM,78.8,53.6,42,30.10,10.0,Calm,Calm,-,N/A,,Unknown,0,2013-05-17 16:35:00
12:55 PM,78.8,51.8,39,30.09,10.0,ESE,3.5,-,N/A,,Unknown,120,2013-05-17 16:55:00
1:15 PM,80.6,53.6,39,30.09,10.0,SSW,5.8,-,N/A,,Unknown,200,2013-05-17 17:15:00
1:45 PM,80.6,50.0,34,30.09,10.0,Variable,3.5,-,N/A,,Clear,0,2013-05-17 17:45:00
3:50 PM,82.4,55.4,39,30.06,10.0,WSW,5.8,-,N/A,,Clear,250,2013-05-17 19:50:00
4:45 PM,82.4,55.4,39,30.05,10.0,WSW,8.1,-,N/A,,Clear,250,2013-05-17 20:45:00
5:45 PM,82.4,51.8,35,30.05,10.0,SSW,6.9,-,N/A,,Clear,210,2013-05-17 21:45:00
6:10 PM,80.6,53.6,39,30.05,10.0,South,6.9,-,N/A,,Clear,180,2013-05-17 22:10:00
6:45 PM,80.6,55.4,42,30.05,10.0,South,6.9,-,N/A,,Clear,170,2013-05-17 22:45:00
7:55 PM,75.2,57.2,53,30.07,10.0,SSE,5.8,-,N/A,,Unknown,160,2013-05-17 23:55:00
8:15 PM,71.6,57.2,60,30.07,10.0,SE,5.8,-,N/A,,Unknown,130,2013-05-18 00:15:00
8:35 PM,71.6,57.2,60,30.08,10.0,SE,4.6,-,N/A,,Unknown,140,2013-05-18 00:35:00
8:55 PM,71.6,57.2,60,30.09,10.0,Calm,Calm,-,N/A,,Unknown,0,2013-05-18 00:55:00
9:15 PM,71.6,55.4,57,30.09,10.0,ESE,3.5,-,N/A,,Unknown,120,2013-05-18 01:15:00
9:35 PM,69.8,55.4,60,30.10,10.0,SE,4.6,-,N/A,,Unknown,140,2013-05-18 01:35:00
9:55 PM,69.8,53.6,56,30.11,10.0,Calm,Calm,-,N/A,,Unknown,0,2013-05-18 01:55:00
10:15 PM,69.8,55.4,60,30.11,10.0,Calm,Calm,-,N/A,,Unknown,0,2013-05-18 02:15:00
10:35 PM,69.8,55.4,60,30.12,10.0,SSE,3.5,-,N/A,,Unknown,150,2013-05-18 02:35:00
10:55 PM,68.0,53.6,60,30.12,10.0,Calm,Calm,-,N/A,,Unknown,0,2013-05-18 02:55:00
11:15 PM,69.8,53.6,56,30.13,10.0,SSE,3.5,-,N/A,,Unknown,160,2013-05-18 03:15:00
11:35 PM,68.0,55.4,64,30.13,10.0,South,3.5,-,N/A,,Unknown,180,2013-05-18 03:35:00
11:55 PM,66.2,57.2,73,30.14,10.0,SSE,6.9,-,N/A,,Unknown,150,2013-05-18 03:55:00